TAF Text Data
IDs:
Format:
Raw Decoded Include METAR

Data at: 1506 UTC 10 Aug 2022

KJZI 101120Z 1012/1112 23007KT P6SM SCT025
  FM101700 20011KT P6SM SCT045
  FM102300 20007KT P6SM FEW050 SCT150 BKN250